Time;durP1;ratioP1;P1;durP2;ratioP2;P2;SDS_P1;SDS_P2;PMS_P1;PMS_P2;Temp;Humidity;BMP_temperature;BMP_pressure;BME280_temperature;BME280_humidity;BME280_pressure;Samples;Min_cycle;Max_cycle;Signal;HPM_P1;HPM_P2
2021/06/26 00:00:51;;;;;;;10.70;9.60;;;16.30;76.70;;;;;;5006587;28;20046;-71
2021/06/26 00:03:20;;;;;;;10.13;9.10;;;16.20;76.90;;;;;;5001741;28;20408;-70
2021/06/26 00:05:46;;;;;;;11.57;9.43;;;16.20;77.10;;;;;;5009341;28;20033;-71
2021/06/26 00:08:12;;;;;;;10.25;9.13;;;16.20;76.40;;;;;;5006125;28;20022;-71
2021/06/26 00:10:38;;;;;;;12.15;9.43;;;16.20;77.10;;;;;;5008687;28;20033;-71
2021/06/26 00:13:04;;;;;;;12.65;10.52;;;16.10;77.30;;;;;;5009419;28;20373;-71
2021/06/26 00:15:29;;;;;;;10.75;9.70;;;16.10;78.00;;;;;;5010689;28;20034;-71
2021/06/26 00:17:55;;;;;;;14.43;9.85;;;16.10;77.90;;;;;;5009544;28;20030;-71
2021/06/26 00:20:20;;;;;;;12.95;10.85;;;16.10;78.40;;;;;;5008310;28;20029;-71
2021/06/26 00:22:46;;;;;;;10.45;9.20;;;16.10;78.40;;;;;;5009545;28;20014;-71
2021/06/26 00:25:12;;;;;;;10.75;9.07;;;16.10;78.30;;;;;;5009405;28;20105;-71
2021/06/26 00:27:37;;;;;;;9.43;8.52;;;16.10;78.30;;;;;;5008696;28;20041;-71
2021/06/26 00:30:04;;;;;;;13.07;9.98;;;16.00;78.60;;;;;;5009485;28;20029;-71
2021/06/26 00:32:29;;;;;;;10.73;9.65;;;16.00;78.10;;;;;;5025540;28;20029;-71
2021/06/26 00:34:55;;;;;;;11.27;10.27;;;16.00;77.90;;;;;;5010856;28;20033;-71
2021/06/26 00:37:20;;;;;;;11.55;10.50;;;15.90;78.10;;;;;;5008841;28;20033;-71
2021/06/26 00:39:46;;;;;;;13.50;11.40;;;15.90;78.30;;;;;;5005322;28;20052;-71
2021/06/26 00:42:11;;;;;;;12.93;10.82;;;15.80;79.80;;;;;;5009205;28;20358;-71
2021/06/26 00:44:37;;;;;;;10.05;9.10;;;15.80;79.80;;;;;;5008166;28;20053;-71
2021/06/26 00:47:10;;;;;;;11.95;10.32;;;15.80;79.80;;;;;;5010296;28;20105;-71
2021/06/26 00:49:36;;;;;;;9.65;8.68;;;15.80;80.20;;;;;;5006121;28;20033;-71
2021/06/26 00:52:02;;;;;;;11.68;9.38;;;15.70;79.90;;;;;;5006266;28;20397;-71
2021/06/26 00:54:27;;;;;;;11.52;9.30;;;15.70;80.00;;;;;;5008733;28;20686;-71
2021/06/26 00:56:53;;;;;;;11.35;10.25;;;15.70;80.10;;;;;;5007496;28;20477;-71
2021/06/26 00:59:19;;;;;;;14.50;9.93;;;15.70;80.20;;;;;;5007208;28;20032;-71
2021/06/26 01:01:44;;;;;;;10.32;9.30;;;15.70;80.10;;;;;;5006919;28;20665;-71
2021/06/26 01:04:10;;;;;;;13.60;10.02;;;15.70;80.30;;;;;;5006877;28;20022;-71
2021/06/26 01:06:35;;;;;;;10.07;9.07;;;15.60;80.20;;;;;;5007395;28;20054;-71
2021/06/26 01:09:01;;;;;;;12.73;9.80;;;15.60;80.10;;;;;;5005975;28;20034;-71
2021/06/26 01:11:26;;;;;;;10.82;9.00;;;15.60;80.60;;;;;;5007159;28;20030;-71
2021/06/26 01:13:52;;;;;;;12.15;9.55;;;15.50;80.20;;;;;;5007539;28;20030;-71
2021/06/26 01:16:17;;;;;;;9.85;8.93;;;15.60;80.70;;;;;;5008735;28;20497;-71
2021/06/26 01:18:43;;;;;;;13.20;9.88;;;15.40;80.20;;;;;;5003792;28;20048;-71
2021/06/26 01:21:09;;;;;;;11.20;10.10;;;15.40;80.30;;;;;;5008773;28;20029;-71
2021/06/26 01:23:37;;;;;;;10.85;9.80;;;15.50;80.50;;;;;;5007757;28;20481;-71
2021/06/26 01:26:04;;;;;;;13.15;9.63;;;15.40;80.20;;;;;;5008303;28;20033;-71
2021/06/26 01:28:30;;;;;;;10.32;9.02;;;15.40;80.30;;;;;;5005020;28;20650;-71
2021/06/26 01:30:55;;;;;;;10.55;9.25;;;15.50;80.70;;;;;;5006872;28;20026;-71
2021/06/26 01:33:21;;;;;;;10.63;9.63;;;15.50;80.90;;;;;;5009303;28;20037;-71
2021/06/26 01:35:48;;;;;;;10.18;9.05;;;15.40;81.00;;;;;;5005726;28;20646;-71
2021/06/26 01:38:14;;;;;;;11.50;9.57;;;15.40;81.30;;;;;;5006244;28;21692;-71
2021/06/26 01:40:39;;;;;;;10.65;8.13;;;15.30;81.60;;;;;;5006956;28;20088;-71
2021/06/26 01:43:05;;;;;;;10.18;8.90;;;15.30;81.80;;;;;;5006470;28;20499;-71
2021/06/26 01:45:30;;;;;;;13.98;9.50;;;15.30;81.90;;;;;;5008764;28;20050;-71
2021/06/26 01:47:58;;;;;;;10.40;8.98;;;15.20;82.00;;;;;;5007422;28;20816;-71
2021/06/26 01:50:26;;;;;;;11.63;10.43;;;15.20;81.90;;;;;;5005103;28;20018;-71
2021/06/26 01:52:51;;;;;;;12.38;10.18;;;15.20;82.50;;;;;;5007836;28;20072;-71
2021/06/26 01:55:19;;;;;;;11.07;9.73;;;15.10;82.50;;;;;;5008453;28;20477;-71
2021/06/26 01:57:47;;;;;;;11.27;10.00;;;15.10;82.50;;;;;;5005787;28;20030;-71
2021/06/26 02:00:14;;;;;;;13.48;10.40;;;15.10;82.20;;;;;;5005391;28;20061;-71
2021/06/26 02:02:40;;;;;;;12.82;9.60;;;15.10;82.60;;;;;;5006267;28;20026;-71
2021/06/26 02:05:07;;;;;;;12.75;8.93;;;15.10;82.40;;;;;;5007349;28;20030;-71
2021/06/26 02:07:33;;;;;;;10.80;9.80;;;15.20;82.60;;;;;;5007146;28;20060;-71
2021/06/26 02:09:59;;;;;;;10.52;9.43;;;15.10;82.00;;;;;;5004777;28;20485;-71
2021/06/26 02:12:25;;;;;;;12.80;11.50;;;15.10;82.10;;;;;;5005473;28;20066;-71
2021/06/26 02:14:53;;;;;;;12.02;10.63;;;15.00;82.50;;;;;;5004261;28;20076;-71
2021/06/26 02:17:19;;;;;;;13.43;12.02;;;15.00;83.50;;;;;;5005292;28;20030;-71
2021/06/26 02:19:45;;;;;;;12.85;11.45;;;15.00;82.70;;;;;;5006948;28;20117;-71
2021/06/26 02:22:11;;;;;;;11.65;10.20;;;15.00;82.60;;;;;;5004470;28;20105;-71
2021/06/26 02:24:36;;;;;;;9.98;8.98;;;14.90;83.00;;;;;;5007714;28;20033;-71
2021/06/26 02:27:02;;;;;;;12.40;9.35;;;14.80;83.40;;;;;;5006731;28;20034;-71
2021/06/26 02:29:27;;;;;;;10.13;9.10;;;14.80;84.50;;;;;;5005668;28;20142;-71
2021/06/26 02:31:53;;;;;;;14.23;10.73;;;14.80;84.70;;;;;;5007488;28;20096;-71
2021/06/26 02:34:19;;;;;;;11.48;10.32;;;14.70;84.70;;;;;;5005432;28;20041;-71
2021/06/26 02:36:45;;;;;;;12.65;11.10;;;14.70;84.30;;;;;;5019534;28;20030;-71
2021/06/26 02:39:10;;;;;;;15.15;11.35;;;14.70;84.80;;;;;;5006052;28;20095;-71
2021/06/26 02:41:36;;;;;;;11.05;9.70;;;14.70;85.30;;;;;;5008928;28;20536;-71
2021/06/26 02:44:02;;;;;;;12.93;10.60;;;14.70;85.60;;;;;;5005725;28;20802;-71
2021/06/26 02:46:27;;;;;;;10.02;9.07;;;14.70;85.40;;;;;;5007854;28;20528;-71
2021/06/26 02:48:52;;;;;;;11.35;9.88;;;14.60;85.80;;;;;;5001212;28;20026;-73
2021/06/26 02:51:18;;;;;;;;;;;14.60;85.70;;;;;;5006141;28;20022;-73
2021/06/26 02:53:43;;;;;;;12.70;9.63;;;14.60;86.00;;;;;;5008348;28;19909;-70
2021/06/26 02:56:09;;;;;;;11.20;8.80;;;14.60;85.70;;;;;;5006510;28;20373;-70
2021/06/26 02:58:34;;;;;;;11.38;10.27;;;14.50;85.70;;;;;;5004740;28;20117;-70
2021/06/26 03:01:00;;;;;;;;;;;14.50;85.90;;;;;;5002732;28;20041;-73
2021/06/26 03:03:26;;;;;;;10.27;9.27;;;14.50;86.10;;;;;;5015251;28;19925;-73
2021/06/26 03:05:51;;;;;;;10.50;9.20;;;14.50;86.40;;;;;;5004564;28;20026;-73
2021/06/26 03:08:17;;;;;;;;;;;14.50;86.00;;;;;;5006121;28;20056;-73
2021/06/26 03:10:42;;;;;;;9.50;8.60;;;14.40;85.50;;;;;;5007739;28;20257;-71
2021/06/26 03:13:08;;;;;;;;;;;14.40;85.70;;;;;;5007219;28;20041;-70
2021/06/26 03:15:33;;;;;;;12.25;9.43;;;14.40;85.60;;;;;;5005490;28;20319;-70
2021/06/26 03:17:59;;;;;;;10.38;9.38;;;14.40;86.50;;;;;;5006438;28;20034;-70
2021/06/26 03:20:25;;;;;;;13.25;10.50;;;14.50;86.10;;;;;;5006649;28;20030;-73
2021/06/26 03:22:50;;;;;;;;;;;14.40;85.60;;;;;;5004720;28;20145;-70
2021/06/26 03:25:16;;;;;;;12.40;11.15;;;14.50;85.80;;;;;;5007094;28;19906;-70
2021/06/26 03:27:42;;;;;;;;;;;14.50;86.50;;;;;;5008223;28;20030;-70
2021/06/26 03:30:09;;;;;;;11.82;10.63;;;14.50;86.70;;;;;;5010718;28;19913;-70
2021/06/26 03:32:35;;;;;;;15.70;13.27;;;14.50;86.80;;;;;;5010197;28;20044;-71
2021/06/26 03:35:00;;;;;;;13.82;12.43;;;14.50;87.00;;;;;;5012013;28;20069;-71
2021/06/26 03:37:26;;;;;;;15.35;11.15;;;14.50;87.20;;;;;;5008426;28;20029;-71
2021/06/26 03:39:52;;;;;;;12.38;10.73;;;14.40;87.50;;;;;;5009069;28;20041;-70
2021/06/26 03:42:17;;;;;;;;;;;14.50;87.40;;;;;;5012204;28;20030;-71
2021/06/26 03:44:43;;;;;;;12.63;10.57;;;14.70;87.10;;;;;;5009853;28;19913;-71
2021/06/26 03:47:08;;;;;;;12.23;10.93;;;15.00;86.40;;;;;;5008312;28;20380;-73
2021/06/26 03:49:37;;;;;;;;;;;15.30;86.30;;;;;;5009060;28;20070;-73
2021/06/26 03:52:04;;;;;;;13.55;9.98;;;15.50;85.70;;;;;;5010441;28;19948;-73
2021/06/26 03:54:29;;;;;;;13.32;10.52;;;15.70;85.20;;;;;;5009627;28;20034;-71
2021/06/26 03:56:55;;;;;;;14.60;10.63;;;15.90;84.30;;;;;;5008324;28;20543;-71
2021/06/26 03:59:20;;;;;;;14.52;9.43;;;16.20;84.00;;;;;;5009432;28;20037;-71
2021/06/26 04:01:46;;;;;;;9.75;8.73;;;16.40;82.40;;;;;;5007837;28;20022;-74
2021/06/26 04:04:11;;;;;;;14.68;10.00;;;16.60;82.10;;;;;;5011027;28;20037;-74
2021/06/26 04:06:38;;;;;;;9.50;8.35;;;16.80;81.30;;;;;;5011397;28;20033;-73
2021/06/26 04:09:04;;;;;;;8.95;8.05;;;16.90;81.00;;;;;;5008378;28;20025;-73
2021/06/26 04:11:30;;;;;;;10.43;9.18;;;17.20;80.40;;;;;;5010953;28;20136;-73
2021/06/26 04:13:55;;;;;;;10.52;8.90;;;17.40;79.70;;;;;;5008087;28;20037;-73
2021/06/26 04:16:21;;;;;;;9.20;8.30;;;17.50;79.00;;;;;;5007367;28;20041;-73
2021/06/26 04:18:46;;;;;;;10.82;8.18;;;17.70;77.80;;;;;;5006609;28;20116;-73
2021/06/26 04:21:12;;;;;;;9.98;7.93;;;18.00;77.10;;;;;;5010890;28;20044;-73
2021/06/26 04:23:37;;;;;;;9.27;8.38;;;18.20;76.20;;;;;;5007559;28;20030;-70
2021/06/26 04:26:03;;;;;;;10.43;7.43;;;18.60;75.30;;;;;;5009164;28;20512;-70
2021/06/26 04:28:28;;;;;;;8.30;7.50;;;18.90;75.20;;;;;;5007883;28;20105;-70
2021/06/26 04:30:54;;;;;;;11.45;8.00;;;19.10;73.90;;;;;;5006504;28;20045;-70
2021/06/26 04:33:20;;;;;;;8.35;7.47;;;19.30;72.30;;;;;;5009040;28;20085;-71
2021/06/26 04:35:45;;;;;;;7.97;6.93;;;19.60;71.80;;;;;;5008862;28;20073;-71
2021/06/26 04:38:11;;;;;;;8.77;7.82;;;19.90;71.00;;;;;;5006558;28;20030;-70
2021/06/26 04:40:36;;;;;;;10.98;7.47;;;20.30;70.10;;;;;;5010548;28;20030;-71
2021/06/26 04:43:04;;;;;;;11.68;7.28;;;20.60;69.50;;;;;;5009028;28;20079;-70
2021/06/26 04:45:29;;;;;;;11.93;7.35;;;20.90;68.00;;;;;;5008435;28;20025;-71
2021/06/26 04:48:00;;;;;;;9.73;6.78;;;21.20;67.40;;;;;;5009678;28;20026;-71
2021/06/26 04:50:25;;;;;;;8.27;7.30;;;21.60;66.30;;;;;;5005264;28;20578;-77
2021/06/26 04:52:51;;;;;;;7.63;6.07;;;21.90;65.30;;;;;;5005148;28;20030;-77
2021/06/26 04:55:16;;;;;;;6.55;5.95;;;22.50;65.80;;;;;;5009606;28;20517;-77
2021/06/26 04:57:42;;;;;;;9.52;8.05;;;23.00;63.20;;;;;;5008726;28;20038;-77
2021/06/26 05:00:08;;;;;;;7.65;6.95;;;23.40;62.00;;;;;;5005492;28;20121;-77
2021/06/26 05:02:34;;;;;;;9.18;6.95;;;23.60;60.40;;;;;;5009039;28;20029;-77
2021/06/26 05:04:59;;;;;;;8.45;7.22;;;23.90;60.50;;;;;;5008807;28;20480;-77
2021/06/26 05:07:25;;;;;;;10.73;6.55;;;24.40;59.90;;;;;;5007786;28;20026;-77
2021/06/26 05:09:50;;;;;;;9.68;7.22;;;24.70;57.30;;;;;;5007134;28;20424;-77
2021/06/26 05:12:16;;;;;;;8.15;6.35;;;24.90;56.90;;;;;;5006679;28;20058;-77
2021/06/26 05:14:41;;;;;;;8.40;6.88;;;25.20;56.70;;;;;;5008075;28;20046;-77
2021/06/26 05:17:07;;;;;;;8.45;6.25;;;25.60;55.90;;;;;;5007008;28;20034;-78
2021/06/26 05:19:33;;;;;;;9.25;7.78;;;25.80;53.90;;;;;;5006669;28;20555;-77
2021/06/26 05:21:58;;;;;;;7.57;6.88;;;25.90;53.20;;;;;;5006290;28;20037;-77
2021/06/26 05:24:24;;;;;;;15.98;6.75;;;25.80;52.90;;;;;;5008121;28;20966;-77
2021/06/26 05:26:49;;;;;;;9.70;7.25;;;25.90;52.70;;;;;;5007162;28;20025;-77
2021/06/26 05:29:15;;;;;;;10.95;7.93;;;26.00;52.40;;;;;;5004191;28;20120;-78
2021/06/26 05:31:40;;;;;;;10.00;7.25;;;26.20;52.30;;;;;;5009143;28;20026;-77
2021/06/26 05:34:06;;;;;;;7.32;5.88;;;26.20;50.70;;;;;;5007834;28;20033;-77
2021/06/26 05:36:31;;;;;;;9.90;6.15;;;26.30;51.40;;;;;;5009185;28;20397;-78
2021/06/26 05:38:57;;;;;;;11.27;7.28;;;26.50;50.40;;;;;;5005584;28;20037;-78
2021/06/26 05:41:22;;;;;;;7.93;7.10;;;26.60;50.10;;;;;;5009699;28;20026;-78
2021/06/26 05:43:48;;;;;;;9.68;6.22;;;26.70;49.70;;;;;;5006269;28;20029;-78
2021/06/26 05:46:13;;;;;;;8.15;6.65;;;26.60;50.00;;;;;;5009477;28;20030;-78
2021/06/26 05:48:39;;;;;;;9.32;6.22;;;26.60;49.90;;;;;;5004944;28;20370;-78
2021/06/26 05:51:04;;;;;;;7.15;5.53;;;26.30;48.80;;;;;;5008343;28;20459;-78
2021/06/26 05:53:31;;;;;;;8.88;6.03;;;25.90;50.00;;;;;;5003601;28;20022;-78
2021/06/26 05:55:57;;;;;;;6.97;6.05;;;25.70;49.90;;;;;;5003229;28;20079;-78
2021/06/26 05:58:24;;;;;;;7.82;5.90;;;25.50;50.50;;;;;;5014766;28;20030;-78
2021/06/26 06:00:50;;;;;;;9.93;6.82;;;25.40;50.40;;;;;;5003480;28;20030;-76
2021/06/26 06:03:16;;;;;;;8.13;5.85;;;25.20;50.90;;;;;;5007409;28;20073;-75
2021/06/26 06:05:41;;;;;;;7.05;5.20;;;25.00;51.50;;;;;;5005365;28;20397;-75
2021/06/26 06:08:07;;;;;;;8.30;5.68;;;25.00;51.80;;;;;;5003202;28;20676;-77
2021/06/26 06:10:32;;;;;;;8.73;5.47;;;24.90;51.40;;;;;;5001892;28;20033;-78
2021/06/26 06:12:58;;;;;;;7.93;5.65;;;24.70;52.00;;;;;;5007214;28;20451;-80
2021/06/26 06:15:23;;;;;;;8.13;5.50;;;24.70;52.20;;;;;;5007973;28;20034;-79
2021/06/26 06:17:49;;;;;;;8.00;6.30;;;24.70;52.00;;;;;;5008662;28;20079;-79
2021/06/26 06:20:14;;;;;;;11.75;5.57;;;24.80;51.60;;;;;;5008019;28;20159;-79
2021/06/26 06:22:40;;;;;;;5.97;5.05;;;24.80;50.60;;;;;;5009303;28;20022;-80
2021/06/26 06:25:10;;;;;;;8.60;5.75;;;24.90;50.20;;;;;;5006541;28;20041;-79
2021/06/26 06:27:36;;;;;;;7.15;4.68;;;24.90;50.40;;;;;;5006825;28;20033;-73
2021/06/26 06:30:04;;;;;;;4.82;4.35;;;24.80;50.40;;;;;;5007759;28;20037;-73
2021/06/26 06:32:29;;;;;;;6.53;3.95;;;24.70;50.50;;;;;;5008785;28;20116;-73
2021/06/26 06:34:55;;;;;;;7.75;4.95;;;24.70;51.30;;;;;;5008090;28;20104;-73
2021/06/26 06:37:20;;;;;;;8.50;5.45;;;24.70;50.70;;;;;;5008963;28;20033;-73
2021/06/26 06:39:46;;;;;;;6.90;4.65;;;24.80;51.90;;;;;;5006734;28;20045;-73
2021/06/26 06:42:11;;;;;;;4.35;3.95;;;24.90;51.00;;;;;;5007316;28;20029;-74
2021/06/26 06:44:37;;;;;;;4.32;3.92;;;25.00;50.80;;;;;;5004789;28;20110;-73
2021/06/26 06:47:03;;;;;;;5.90;3.60;;;24.90;50.40;;;;;;5008792;28;20018;-74
2021/06/26 06:49:28;;;;;;;5.85;4.25;;;24.80;50.80;;;;;;5007024;28;20131;-73
2021/06/26 06:51:54;;;;;;;4.97;4.47;;;24.80;51.10;;;;;;5009115;28;20029;-73
2021/06/26 06:54:19;;;;;;;5.72;3.78;;;24.80;50.70;;;;;;5008883;28;20022;-73
2021/06/26 06:56:44;;;;;;;5.68;3.78;;;24.70;50.90;;;;;;5005610;28;20473;-73
2021/06/26 06:59:10;;;;;;;6.50;3.60;;;24.80;50.70;;;;;;5006164;28;20041;-73
2021/06/26 07:01:35;;;;;;;6.00;4.78;;;25.00;50.40;;;;;;5004245;28;20466;-73
2021/06/26 07:04:01;;;;;;;5.57;4.50;;;25.10;49.40;;;;;;5007081;28;20025;-73
2021/06/26 07:06:27;;;;;;;7.55;4.18;;;25.30;49.20;;;;;;5009340;28;20516;-73
2021/06/26 07:08:52;;;;;;;8.60;6.72;;;25.20;47.10;;;;;;5007576;28;20400;-73
2021/06/26 07:11:18;;;;;;;11.88;9.75;;;25.00;48.90;;;;;;5010163;28;20068;-73
2021/06/26 07:13:43;;;;;;;9.82;4.88;;;25.10;49.30;;;;;;5009372;28;20241;-73
2021/06/26 07:16:09;;;;;;;6.07;3.97;;;25.30;48.20;;;;;;5006120;28;20038;-73
2021/06/26 07:18:34;;;;;;;8.65;6.03;;;25.30;48.60;;;;;;5005785;28;20149;-73
2021/06/26 07:21:00;;;;;;;6.38;4.53;;;25.30;47.50;;;;;;5009543;28;20030;-72
2021/06/26 07:23:25;;;;;;;7.15;4.57;;;25.20;47.50;;;;;;5007717;28;20042;-74
2021/06/26 07:25:51;;;;;;;12.40;7.80;;;25.30;47.20;;;;;;5006599;28;20030;-73
2021/06/26 07:28:16;;;;;;;8.48;5.10;;;25.40;47.90;;;;;;5002787;28;20045;-72
2021/06/26 07:30:42;;;;;;;13.77;6.20;;;25.40;47.60;;;;;;5007130;28;20103;-73
2021/06/26 07:33:07;;;;;;;13.18;6.97;;;25.40;48.60;;;;;;5009093;28;20061;-75
2021/06/26 07:35:34;;;;;;;10.20;5.82;;;25.50;48.90;;;;;;5008641;28;20113;-74
2021/06/26 07:37:59;;;;;;;12.32;7.60;;;25.50;49.10;;;;;;5005902;28;20034;-74
2021/06/26 07:40:27;;;;;;;7.07;5.18;;;25.50;49.40;;;;;;5007103;28;20076;-73
2021/06/26 07:42:52;;;;;;;12.70;8.50;;;25.40;48.40;;;;;;4992343;28;20519;-73
2021/06/26 07:45:18;;;;;;;14.85;11.40;;;25.30;48.50;;;;;;4990341;28;20034;-73
2021/06/26 07:47:43;;;;;;;16.85;11.05;;;25.40;49.70;;;;;;4994906;28;20038;-73
2021/06/26 07:50:09;;;;;;;13.52;5.72;;;25.60;48.70;;;;;;4993412;28;20429;-75
2021/06/26 07:52:35;;;;;;;9.13;6.93;;;25.60;47.30;;;;;;4989264;28;20041;-73
2021/06/26 07:55:01;;;;;;;6.72;5.97;;;25.60;47.90;;;;;;4997085;28;20026;-74
2021/06/26 07:57:26;;;;;;;12.10;8.77;;;25.50;46.90;;;;;;4998029;28;20041;-75
2021/06/26 07:59:52;;;;;;;7.20;5.75;;;25.40;46.80;;;;;;5004336;28;20044;-74
2021/06/26 08:02:17;;;;;;;7.70;5.70;;;25.50;46.50;;;;;;5007189;28;20041;-74
2021/06/26 08:04:43;;;;;;;10.90;6.88;;;25.60;47.60;;;;;;5008163;28;20583;-74
2021/06/26 08:07:08;;;;;;;15.90;13.07;;;25.70;46.60;;;;;;5008965;28;20465;-74
2021/06/26 08:09:34;;;;;;;6.95;6.00;;;25.80;47.30;;;;;;5009020;28;20040;-74
2021/06/26 08:11:59;;;;;;;7.80;4.72;;;25.90;46.80;;;;;;5007919;28;20045;-74
2021/06/26 08:14:25;;;;;;;10.77;6.28;;;26.00;46.10;;;;;;5007628;28;20164;-74
2021/06/26 08:16:50;;;;;;;10.52;4.95;;;26.10;45.90;;;;;;5007085;28;20388;-74
2021/06/26 08:19:16;;;;;;;8.05;5.38;;;25.90;43.60;;;;;;5009094;28;20251;-74
2021/06/26 08:21:43;;;;;;;9.43;6.55;;;25.50;44.40;;;;;;5007886;28;20022;-74
2021/06/26 08:24:09;;;;;;;6.50;5.07;;;25.50;46.10;;;;;;5010324;28;20057;-74
2021/06/26 08:26:34;;;;;;;6.75;4.03;;;25.70;46.00;;;;;;5010599;28;20114;-74
2021/06/26 08:29:00;;;;;;;5.20;4.20;;;25.90;46.10;;;;;;5010722;28;20069;-74
2021/06/26 08:31:25;;;;;;;7.40;4.07;;;25.90;45.30;;;;;;5010451;28;20026;-74
2021/06/26 08:33:51;;;;;;;7.47;4.82;;;25.90;46.10;;;;;;5009405;28;20025;-74
2021/06/26 08:36:16;;;;;;;9.07;4.82;;;26.00;45.10;;;;;;5007479;28;20041;-75
2021/06/26 08:38:42;;;;;;;5.55;4.20;;;26.10;44.90;;;;;;5010343;28;20106;-75
2021/06/26 08:41:08;;;;;;;5.28;3.88;;;26.10;45.50;;;;;;5009953;28;20519;-75
2021/06/26 08:43:34;;;;;;;5.10;3.53;;;26.20;45.00;;;;;;5010096;28;20036;-75
2021/06/26 08:46:00;;;;;;;4.68;3.72;;;26.50;46.30;;;;;;5010832;28;20465;-75
2021/06/26 08:48:26;;;;;;;4.47;3.58;;;26.80;46.00;;;;;;5009842;28;20037;-75
2021/06/26 08:50:52;;;;;;;8.35;3.05;;;26.80;43.90;;;;;;5010401;28;20036;-75
2021/06/26 08:53:17;;;;;;;6.65;4.15;;;26.50;44.50;;;;;;5007560;28;20037;-75
2021/06/26 08:55:43;;;;;;;6.63;3.85;;;26.50;44.50;;;;;;5009863;28;20168;-75
2021/06/26 08:58:09;;;;;;;4.18;3.85;;;26.40;44.10;;;;;;5009833;28;20041;-75
2021/06/26 09:00:35;;;;;;;4.07;3.75;;;26.20;44.10;;;;;;5009414;28;20033;-75
2021/06/26 09:03:09;;;;;;;5.60;4.55;;;26.20;44.20;;;;;;5009780;28;20507;-75
2021/06/26 09:05:35;;;;;;;15.13;8.68;;;26.20;44.40;;;;;;5010396;28;20037;-75
2021/06/26 09:08:27;;;;;;;8.30;6.25;;;26.10;42.30;;;;;;5009653;28;20036;-75
2021/06/26 09:10:53;;;;;;;10.23;4.38;;;26.10;42.90;;;;;;5007978;28;20489;-75
2021/06/26 09:13:23;;;;;;;3.95;3.55;;;26.10;43.00;;;;;;5009511;28;20045;-75
2021/06/26 09:15:50;;;;;;;6.43;3.22;;;26.10;43.10;;;;;;5010094;28;20026;-75
2021/06/26 09:18:20;;;;;;;7.65;3.38;;;26.10;43.90;;;;;;5009337;28;20033;-75
2021/06/26 09:20:51;;;;;;;7.22;3.58;;;26.30;45.00;;;;;;5009831;28;20032;-75
2021/06/26 09:23:30;;;;;;;7.35;3.20;;;26.50;44.30;;;;;;5008520;28;20022;-75
2021/06/26 09:26:11;;;;;;;8.50;5.80;;;26.50;42.20;;;;;;5007316;28;20040;-75
2021/06/26 09:28:39;;;;;;;5.43;4.22;;;26.50;42.10;;;;;;5007634;28;20079;-75
2021/06/26 09:31:14;;;;;;;4.32;3.38;;;26.60;42.40;;;;;;5009037;28;20064;-75
2021/06/26 09:33:40;;;;;;;5.55;3.85;;;26.70;43.70;;;;;;5008349;28;20033;-75
2021/06/26 09:36:06;;;;;;;5.30;4.03;;;26.70;41.80;;;;;;5009692;28;20034;-75
2021/06/26 09:38:33;;;;;;;4.30;3.70;;;26.50;42.30;;;;;;5009100;28;20116;-75
2021/06/26 09:41:11;;;;;;;4.07;3.22;;;26.50;42.70;;;;;;5007807;28;20133;-75
2021/06/26 09:43:37;;;;;;;4.90;4.38;;;26.60;43.70;;;;;;5008113;28;20666;-75
2021/06/26 09:46:16;;;;;;;15.18;5.45;;;26.80;42.00;;;;;;5009691;28;20128;-75
2021/06/26 09:48:51;;;;;;;5.57;4.07;;;26.70;42.20;;;;;;5009013;28;20477;-75
2021/06/26 09:51:25;;;;;;;3.97;3.67;;;26.30;41.00;;;;;;5009185;28;20063;-75
2021/06/26 09:53:53;;;;;;;3.67;3.38;;;26.00;41.50;;;;;;5008551;28;20026;-75
2021/06/26 09:56:18;;;;;;;7.80;4.65;;;26.10;42.80;;;;;;5007975;28;20038;-75
2021/06/26 09:58:53;;;;;;;2.90;2.65;;;26.30;42.10;;;;;;5006551;28;20026;-75
2021/06/26 10:01:20;;;;;;;14.17;10.10;;;26.50;43.40;;;;;;5007962;28;20079;-75
2021/06/26 10:03:48;;;;;;;9.45;8.05;;;26.70;42.80;;;;;;5008485;28;20752;-75
2021/06/26 10:06:20;;;;;;;7.97;3.92;;;26.90;42.90;;;;;;5009345;28;20080;-75
2021/06/26 10:08:45;;;;;;;3.55;3.25;;;27.00;42.00;;;;;;5023203;28;20022;-75
2021/06/26 10:11:12;;;;;;;4.68;4.05;;;26.80;41.70;;;;;;5007952;28;20392;-75
2021/06/26 10:13:38;;;;;;;4.03;2.95;;;26.70;39.20;;;;;;5008541;28;20119;-75
2021/06/26 10:16:04;;;;;;;5.45;4.95;;;26.60;39.90;;;;;;5022316;28;20250;-75
2021/06/26 10:18:30;;;;;;;6.50;4.97;;;26.40;38.40;;;;;;5006514;28;20536;-76
2021/06/26 10:20:57;;;;;;;5.65;4.18;;;26.20;39.50;;;;;;5008439;28;20052;-76
2021/06/26 10:23:23;;;;;;;24.75;21.38;;;26.10;39.70;;;;;;5007860;28;20116;-76
2021/06/26 10:25:49;;;;;;;7.10;6.50;;;26.10;39.80;;;;;;5008434;28;20031;-75
2021/06/26 10:28:19;;;;;;;6.88;3.38;;;26.10;40.30;;;;;;5008709;28;20030;-75
2021/06/26 10:31:11;;;;;;;5.40;3.17;;;25.90;41.00;;;;;;5007280;28;20062;-75
2021/06/26 10:33:38;;;;;;;3.45;3.15;;;25.90;40.20;;;;;;5005199;28;20033;-75
2021/06/26 10:36:04;;;;;;;14.23;11.95;;;25.90;40.10;;;;;;5004097;28;20034;-75
2021/06/26 10:38:50;;;;;;;21.33;17.83;;;25.90;40.80;;;;;;5006480;28;20022;-76
2021/06/26 10:41:20;;;;;;;5.25;4.65;;;26.00;39.80;;;;;;5023478;28;20034;-75
2021/06/26 10:43:59;;;;;;;5.68;5.18;;;26.00;40.00;;;;;;5008169;28;20030;-74
2021/06/26 10:46:25;;;;;;;9.95;8.90;;;25.70;39.60;;;;;;5008841;28;20342;-75
2021/06/26 10:49:09;;;;;;;4.38;3.65;;;25.60;41.10;;;;;;5008495;28;20022;-75
2021/06/26 10:51:35;;;;;;;5.28;3.13;;;25.90;41.30;;;;;;5008038;28;20504;-75
2021/06/26 10:54:15;;;;;;;2.85;2.58;;;26.40;41.60;;;;;;5006991;28;20418;-75
2021/06/26 10:56:43;;;;;;;13.68;6.72;;;26.50;41.30;;;;;;5008467;28;20022;-75
2021/06/26 10:59:18;;;;;;;10.43;8.85;;;26.40;39.70;;;;;;5007834;28;20480;-75
2021/06/26 11:01:54;;;;;;;8.20;4.95;;;26.40;39.40;;;;;;4999117;28;20452;-75
2021/06/26 11:04:20;;;;;;;2.90;2.70;;;26.40;39.80;;;;;;5007608;28;20049;-75
2021/06/26 11:06:50;;;;;;;4.18;3.63;;;26.20;39.40;;;;;;5008410;28;20057;-75
2021/06/26 11:09:16;;;;;;;4.80;4.32;;;26.10;39.40;;;;;;5004927;28;20034;-75
2021/06/26 11:11:48;;;;;;;5.97;5.38;;;26.00;40.10;;;;;;5007064;28;20515;-75
2021/06/26 11:14:20;;;;;;;8.75;4.43;;;26.30;40.70;;;;;;5008175;28;20045;-75
2021/06/26 11:16:50;;;;;;;3.53;2.60;;;26.50;40.60;;;;;;5007127;28;20026;-75
2021/06/26 11:19:16;;;;;;;2.60;2.40;;;26.60;40.50;;;;;;5007501;28;20026;-75
2021/06/26 11:21:47;;;;;;;5.13;2.20;;;26.90;40.90;;;;;;5008196;28;20113;-75
2021/06/26 11:24:13;;;;;;;9.65;8.73;;;27.10;40.10;;;;;;5005622;28;20053;-75
2021/06/26 11:26:54;;;;;;;7.30;6.18;;;27.00;39.80;;;;;;5007754;28;20022;-75
2021/06/26 11:29:47;;;;;;;35.97;27.75;;;26.90;39.00;;;;;;5007629;28;20568;-75
2021/06/26 11:32:21;;;;;;;113.60;84.57;;;26.80;39.90;;;;;;5006660;28;20386;-75
2021/06/26 11:35:07;;;;;;;6.93;5.95;;;26.70;39.50;;;;;;5005214;28;20117;-75
2021/06/26 11:37:41;;;;;;;19.65;16.77;;;26.60;40.40;;;;;;5007663;28;20040;-75
2021/06/26 11:40:13;;;;;;;3.20;3.00;;;26.50;39.60;;;;;;5007675;28;20037;-75
2021/06/26 11:42:49;;;;;;;11.98;10.07;;;26.30;40.20;;;;;;5006891;28;20206;-75
2021/06/26 11:45:29;;;;;;;7.03;6.30;;;26.30;40.50;;;;;;5007883;28;20014;-75
2021/06/26 11:48:13;;;;;;;6.90;4.40;;;26.50;40.20;;;;;;5007647;28;20122;-75
2021/06/26 11:50:50;;;;;;;3.97;3.50;;;26.50;40.10;;;;;;5009384;28;20129;-75
2021/06/26 11:53:17;;;;;;;5.25;2.63;;;26.50;40.00;;;;;;5008858;28;20045;-75
2021/06/26 11:56:01;;;;;;;2.08;1.77;;;26.60;40.00;;;;;;5010718;28;20029;-75
2021/06/26 11:58:45;;;;;;;5.47;4.97;;;26.70;41.50;;;;;;5010495;28;20405;-75
2021/06/26 12:01:25;;;;;;;3.80;3.40;;;27.10;39.90;;;;;;5009996;28;20069;-75
2021/06/26 12:03:51;;;;;;;3.90;3.55;;;27.20;39.90;;;;;;5009851;28;20033;-75
2021/06/26 12:06:17;;;;;;;4.35;2.58;;;27.30;39.40;;;;;;5009591;28;20017;-75
2021/06/26 12:08:52;;;;;;;2.60;2.40;;;27.10;39.10;;;;;;5005426;28;20029;-75
2021/06/26 12:11:20;;;;;;;2.92;2.45;;;26.90;39.90;;;;;;5010611;28;20129;-75
2021/06/26 12:13:49;;;;;;;43.63;33.10;;;26.80;40.10;;;;;;5010349;28;20099;-75
2021/06/26 12:16:19;;;;;;;23.08;17.75;;;26.80;41.10;;;;;;5010770;28;20589;-75
2021/06/26 12:18:47;;;;;;;4.47;3.15;;;27.00;41.30;;;;;;5009367;28;20058;-75
2021/06/26 12:21:12;;;;;;;2.47;2.08;;;26.90;41.20;;;;;;5010726;28;20580;-75
2021/06/26 12:23:48;;;;;;;6.78;4.47;;;27.00;41.60;;;;;;5011030;28;20041;-75
2021/06/26 12:26:18;;;;;;;11.25;8.73;;;27.30;42.10;;;;;;5008235;28;20029;-75
2021/06/26 12:28:44;;;;;;;5.90;4.38;;;27.40;41.40;;;;;;5010760;28;20025;-75
2021/06/26 12:31:10;;;;;;;26.30;20.23;;;27.70;41.00;;;;;;5010754;28;20666;-75
2021/06/26 12:33:35;;;;;;;21.15;15.13;;;27.70;40.90;;;;;;5010781;28;20087;-75
2021/06/26 12:36:17;;;;;;;17.80;12.88;;;27.60;40.80;;;;;;5010316;28;20029;-75
2021/06/26 12:38:44;;;;;;;11.60;9.20;;;27.60;41.40;;;;;;5010303;28;20079;-75
2021/06/26 12:41:21;;;;;;;6.32;4.97;;;27.40;40.60;;;;;;5008376;28;20026;-75
2021/06/26 12:43:48;;;;;;;29.45;21.08;;;27.10;41.30;;;;;;5009025;28;20030;-74